sensor_id;sensor_type;location;lat;lon;timestamp;P1;durP1;ratioP1;P2;durP2;ratioP2
61254;SDS011;47128;47.530;8.584;2024-03-08T00:01:22;62.92;;;26.00;;
61254;SDS011;47128;47.530;8.584;2024-03-08T00:03:49;56.40;;;22.83;;
61254;SDS011;47128;47.530;8.584;2024-03-08T00:06:17;53.63;;;23.35;;
61254;SDS011;47128;47.530;8.584;2024-03-08T00:08:43;59.95;;;24.95;;
61254;SDS011;47128;47.530;8.584;2024-03-08T00:11:09;62.08;;;26.08;;
61254;SDS011;47128;47.530;8.584;2024-03-08T00:13:35;58.15;;;26.00;;
61254;SDS011;47128;47.530;8.584;2024-03-08T00:16:02;63.10;;;22.90;;
61254;SDS011;47128;47.530;8.584;2024-03-08T00:18:28;56.33;;;23.48;;
61254;SDS011;47128;47.530;8.584;2024-03-08T00:20:54;55.88;;;23.63;;
61254;SDS011;47128;47.530;8.584;2024-03-08T00:23:21;59.85;;;24.48;;
61254;SDS011;47128;47.530;8.584;2024-03-08T00:25:48;60.67;;;24.60;;
61254;SDS011;47128;47.530;8.584;2024-03-08T00:28:14;54.78;;;23.42;;
61254;SDS011;47128;47.530;8.584;2024-03-08T00:30:42;50.97;;;22.17;;
61254;SDS011;47128;47.530;8.584;2024-03-08T00:33:08;51.40;;;23.60;;
61254;SDS011;47128;47.530;8.584;2024-03-08T00:35:34;55.53;;;23.02;;
61254;SDS011;47128;47.530;8.584;2024-03-08T00:38:00;58.70;;;23.25;;
61254;SDS011;47128;47.530;8.584;2024-03-08T00:40:27;51.38;;;23.40;;
61254;SDS011;47128;47.530;8.584;2024-03-08T00:42:54;59.50;;;25.17;;
61254;SDS011;47128;47.530;8.584;2024-03-08T00:45:20;55.65;;;22.63;;
61254;SDS011;47128;47.530;8.584;2024-03-08T00:47:48;56.17;;;24.02;;
61254;SDS011;47128;47.530;8.584;2024-03-08T00:50:15;52.42;;;24.48;;
61254;SDS011;47128;47.530;8.584;2024-03-08T00:52:41;59.85;;;23.45;;
61254;SDS011;47128;47.530;8.584;2024-03-08T00:55:07;55.60;;;23.80;;
61254;SDS011;47128;47.530;8.584;2024-03-08T00:57:35;57.83;;;24.65;;
61254;SDS011;47128;47.530;8.584;2024-03-08T01:00:03;57.13;;;23.52;;
61254;SDS011;47128;47.530;8.584;2024-03-08T01:02:30;53.75;;;23.88;;
61254;SDS011;47128;47.530;8.584;2024-03-08T01:04:58;54.47;;;23.45;;
61254;SDS011;47128;47.530;8.584;2024-03-08T01:07:24;57.78;;;22.52;;
61254;SDS011;47128;47.530;8.584;2024-03-08T01:09:51;53.97;;;23.50;;
61254;SDS011;47128;47.530;8.584;2024-03-08T01:12:17;54.22;;;23.65;;
61254;SDS011;47128;47.530;8.584;2024-03-08T01:14:43;56.83;;;23.92;;
61254;SDS011;47128;47.530;8.584;2024-03-08T01:17:09;49.60;;;22.67;;
61254;SDS011;47128;47.530;8.584;2024-03-08T01:19:36;58.90;;;24.00;;
61254;SDS011;47128;47.530;8.584;2024-03-08T01:22:03;56.88;;;24.23;;
61254;SDS011;47128;47.530;8.584;2024-03-08T01:24:29;60.03;;;23.75;;
61254;SDS011;47128;47.530;8.584;2024-03-08T01:26:56;62.85;;;24.13;;
61254;SDS011;47128;47.530;8.584;2024-03-08T01:29:22;61.03;;;25.27;;
61254;SDS011;47128;47.530;8.584;2024-03-08T01:31:48;55.55;;;24.73;;
61254;SDS011;47128;47.530;8.584;2024-03-08T01:34:17;57.65;;;25.00;;
61254;SDS011;47128;47.530;8.584;2024-03-08T01:36:43;54.40;;;23.85;;
61254;SDS011;47128;47.530;8.584;2024-03-08T01:39:10;52.45;;;22.20;;
61254;SDS011;47128;47.530;8.584;2024-03-08T01:41:36;55.60;;;23.40;;
61254;SDS011;47128;47.530;8.584;2024-03-08T01:44:03;53.92;;;25.02;;
61254;SDS011;47128;47.530;8.584;2024-03-08T01:46:30;56.15;;;25.30;;
61254;SDS011;47128;47.530;8.584;2024-03-08T01:48:56;58.72;;;23.02;;
61254;SDS011;47128;47.530;8.584;2024-03-08T01:51:23;66.03;;;27.38;;
61254;SDS011;47128;47.530;8.584;2024-03-08T01:53:49;64.72;;;25.05;;
61254;SDS011;47128;47.530;8.584;2024-03-08T01:56:15;61.15;;;25.52;;
61254;SDS011;47128;47.530;8.584;2024-03-08T01:58:43;58.85;;;25.17;;
61254;SDS011;47128;47.530;8.584;2024-03-08T02:01:11;64.72;;;25.35;;
61254;SDS011;47128;47.530;8.584;2024-03-08T02:03:37;60.70;;;24.60;;
61254;SDS011;47128;47.530;8.584;2024-03-08T02:06:03;54.20;;;23.75;;
61254;SDS011;47128;47.530;8.584;2024-03-08T02:08:30;59.90;;;25.42;;
61254;SDS011;47128;47.530;8.584;2024-03-08T02:10:56;59.00;;;24.27;;
61254;SDS011;47128;47.530;8.584;2024-03-08T02:13:23;58.45;;;24.75;;
61254;SDS011;47128;47.530;8.584;2024-03-08T02:15:50;55.80;;;23.50;;
61254;SDS011;47128;47.530;8.584;2024-03-08T02:18:16;58.20;;;24.73;;
61254;SDS011;47128;47.530;8.584;2024-03-08T02:20:42;54.90;;;25.40;;
61254;SDS011;47128;47.530;8.584;2024-03-08T02:23:09;67.90;;;24.63;;
61254;SDS011;47128;47.530;8.584;2024-03-08T02:25:35;62.72;;;26.02;;
61254;SDS011;47128;47.530;8.584;2024-03-08T02:28:02;59.15;;;23.95;;
61254;SDS011;47128;47.530;8.584;2024-03-08T02:30:28;56.90;;;23.58;;
61254;SDS011;47128;47.530;8.584;2024-03-08T02:32:55;59.67;;;24.40;;
61254;SDS011;47128;47.530;8.584;2024-03-08T02:35:21;53.90;;;24.88;;
61254;SDS011;47128;47.530;8.584;2024-03-08T02:37:47;54.35;;;24.63;;
61254;SDS011;47128;47.530;8.584;2024-03-08T02:40:15;55.05;;;24.70;;
61254;SDS011;47128;47.530;8.584;2024-03-08T02:42:41;57.92;;;25.00;;
61254;SDS011;47128;47.530;8.584;2024-03-08T02:45:08;50.95;;;22.40;;
61254;SDS011;47128;47.530;8.584;2024-03-08T02:47:37;62.47;;;25.42;;
61254;SDS011;47128;47.530;8.584;2024-03-08T02:50:03;57.25;;;24.27;;
61254;SDS011;47128;47.530;8.584;2024-03-08T02:52:30;54.30;;;25.15;;
61254;SDS011;47128;47.530;8.584;2024-03-08T02:54:56;51.67;;;23.30;;
61254;SDS011;47128;47.530;8.584;2024-03-08T02:57:22;56.53;;;24.05;;
61254;SDS011;47128;47.530;8.584;2024-03-08T02:59:49;51.85;;;24.02;;
61254;SDS011;47128;47.530;8.584;2024-03-08T03:02:15;56.03;;;24.02;;
61254;SDS011;47128;47.530;8.584;2024-03-08T03:04:42;51.65;;;24.33;;
61254;SDS011;47128;47.530;8.584;2024-03-08T03:07:10;49.65;;;23.67;;
61254;SDS011;47128;47.530;8.584;2024-03-08T03:09:36;57.03;;;23.08;;
61254;SDS011;47128;47.530;8.584;2024-03-08T03:12:03;50.03;;;22.73;;
61254;SDS011;47128;47.530;8.584;2024-03-08T03:14:29;49.08;;;23.48;;
61254;SDS011;47128;47.530;8.584;2024-03-08T03:16:55;50.72;;;24.23;;
61254;SDS011;47128;47.530;8.584;2024-03-08T03:19:21;49.42;;;23.73;;
61254;SDS011;47128;47.530;8.584;2024-03-08T03:21:48;53.85;;;22.30;;
61254;SDS011;47128;47.530;8.584;2024-03-08T03:24:16;47.53;;;21.27;;
61254;SDS011;47128;47.530;8.584;2024-03-08T03:26:43;43.92;;;20.67;;
61254;SDS011;47128;47.530;8.584;2024-03-08T03:29:09;41.22;;;20.17;;
61254;SDS011;47128;47.530;8.584;2024-03-08T03:31:36;42.97;;;19.73;;
61254;SDS011;47128;47.530;8.584;2024-03-08T03:34:02;39.78;;;19.63;;
61254;SDS011;47128;47.530;8.584;2024-03-08T03:36:29;45.80;;;19.60;;
61254;SDS011;47128;47.530;8.584;2024-03-08T03:38:56;40.28;;;17.38;;
61254;SDS011;47128;47.530;8.584;2024-03-08T03:41:32;40.75;;;19.27;;
61254;SDS011;47128;47.530;8.584;2024-03-08T03:43:59;42.65;;;19.60;;
61254;SDS011;47128;47.530;8.584;2024-03-08T03:46:25;41.97;;;19.95;;
61254;SDS011;47128;47.530;8.584;2024-03-08T03:48:52;41.70;;;20.38;;
61254;SDS011;47128;47.530;8.584;2024-03-08T03:51:18;40.15;;;17.90;;
61254;SDS011;47128;47.530;8.584;2024-03-08T03:53:45;46.75;;;19.95;;
61254;SDS011;47128;47.530;8.584;2024-03-08T03:56:11;46.50;;;19.52;;
61254;SDS011;47128;47.530;8.584;2024-03-08T03:58:38;41.00;;;18.98;;
61254;SDS011;47128;47.530;8.584;2024-03-08T04:01:05;40.28;;;19.38;;
61254;SDS011;47128;47.530;8.584;2024-03-08T04:03:31;44.28;;;19.50;;
61254;SDS011;47128;47.530;8.584;2024-03-08T04:05:57;45.88;;;20.90;;
61254;SDS011;47128;47.530;8.584;2024-03-08T04:08:24;43.33;;;19.23;;
61254;SDS011;47128;47.530;8.584;2024-03-08T04:10:50;40.72;;;19.38;;
61254;SDS011;47128;47.530;8.584;2024-03-08T04:13:16;45.13;;;20.25;;
61254;SDS011;47128;47.530;8.584;2024-03-08T04:15:42;42.33;;;19.90;;
61254;SDS011;47128;47.530;8.584;2024-03-08T04:18:15;43.88;;;20.55;;
61254;SDS011;47128;47.530;8.584;2024-03-08T04:20:41;40.03;;;19.10;;
61254;SDS011;47128;47.530;8.584;2024-03-08T04:23:07;45.35;;;19.30;;
61254;SDS011;47128;47.530;8.584;2024-03-08T04:25:34;48.63;;;20.52;;
61254;SDS011;47128;47.530;8.584;2024-03-08T04:28:00;41.00;;;18.30;;
61254;SDS011;47128;47.530;8.584;2024-03-08T04:30:26;42.78;;;19.13;;
61254;SDS011;47128;47.530;8.584;2024-03-08T04:32:53;38.40;;;18.88;;
61254;SDS011;47128;47.530;8.584;2024-03-08T04:35:20;40.00;;;18.08;;
61254;SDS011;47128;47.530;8.584;2024-03-08T04:37:46;41.55;;;18.67;;
61254;SDS011;47128;47.530;8.584;2024-03-08T04:40:12;41.72;;;19.20;;
61254;SDS011;47128;47.530;8.584;2024-03-08T04:42:38;41.63;;;19.83;;
61254;SDS011;47128;47.530;8.584;2024-03-08T04:45:05;45.20;;;20.48;;
61254;SDS011;47128;47.530;8.584;2024-03-08T04:47:33;40.60;;;18.48;;
61254;SDS011;47128;47.530;8.584;2024-03-08T04:50:01;39.58;;;18.13;;
61254;SDS011;47128;47.530;8.584;2024-03-08T04:52:29;39.75;;;18.77;;
61254;SDS011;47128;47.530;8.584;2024-03-08T04:54:55;42.03;;;17.77;;
61254;SDS011;47128;47.530;8.584;2024-03-08T04:57:21;38.70;;;17.98;;
61254;SDS011;47128;47.530;8.584;2024-03-08T04:59:48;40.03;;;19.38;;
61254;SDS011;47128;47.530;8.584;2024-03-08T05:02:14;39.33;;;19.48;;
61254;SDS011;47128;47.530;8.584;2024-03-08T05:04:40;39.13;;;19.17;;
61254;SDS011;47128;47.530;8.584;2024-03-08T05:07:07;43.83;;;19.90;;
61254;SDS011;47128;47.530;8.584;2024-03-08T05:09:33;37.42;;;17.90;;
61254;SDS011;47128;47.530;8.584;2024-03-08T05:12:01;40.72;;;18.30;;
61254;SDS011;47128;47.530;8.584;2024-03-08T05:14:27;36.55;;;17.98;;
61254;SDS011;47128;47.530;8.584;2024-03-08T05:16:53;36.17;;;18.27;;
61254;SDS011;47128;47.530;8.584;2024-03-08T05:19:22;36.15;;;17.60;;
61254;SDS011;47128;47.530;8.584;2024-03-08T05:21:49;40.40;;;19.20;;
61254;SDS011;47128;47.530;8.584;2024-03-08T05:24:15;38.00;;;18.30;;
61254;SDS011;47128;47.530;8.584;2024-03-08T05:26:41;42.17;;;20.50;;
61254;SDS011;47128;47.530;8.584;2024-03-08T05:29:08;37.38;;;18.63;;
61254;SDS011;47128;47.530;8.584;2024-03-08T05:34:09;38.72;;;18.50;;
61254;SDS011;47128;47.530;8.584;2024-03-08T05:36:35;39.13;;;18.92;;
61254;SDS011;47128;47.530;8.584;2024-03-08T05:39:01;41.17;;;18.60;;
61254;SDS011;47128;47.530;8.584;2024-03-08T05:41:31;39.97;;;18.95;;
61254;SDS011;47128;47.530;8.584;2024-03-08T05:43:57;38.72;;;18.33;;
61254;SDS011;47128;47.530;8.584;2024-03-08T05:46:24;43.20;;;19.02;;
61254;SDS011;47128;47.530;8.584;2024-03-08T05:48:50;37.83;;;18.05;;
61254;SDS011;47128;47.530;8.584;2024-03-08T05:51:16;39.85;;;18.65;;
61254;SDS011;47128;47.530;8.584;2024-03-08T05:53:44;39.10;;;18.02;;
61254;SDS011;47128;47.530;8.584;2024-03-08T05:56:10;39.25;;;17.52;;
61254;SDS011;47128;47.530;8.584;2024-03-08T05:58:36;37.33;;;17.25;;
61254;SDS011;47128;47.530;8.584;2024-03-08T06:01:03;39.78;;;17.50;;
61254;SDS011;47128;47.530;8.584;2024-03-08T06:03:32;37.88;;;18.30;;
61254;SDS011;47128;47.530;8.584;2024-03-08T06:05:58;40.78;;;17.85;;
61254;SDS011;47128;47.530;8.584;2024-03-08T06:08:25;41.95;;;20.63;;
61254;SDS011;47128;47.530;8.584;2024-03-08T06:10:55;37.63;;;17.67;;
61254;SDS011;47128;47.530;8.584;2024-03-08T06:13:21;39.17;;;17.98;;
61254;SDS011;47128;47.530;8.584;2024-03-08T06:15:47;38.78;;;18.65;;
61254;SDS011;47128;47.530;8.584;2024-03-08T06:18:13;36.75;;;17.42;;
61254;SDS011;47128;47.530;8.584;2024-03-08T06:20:40;38.55;;;17.77;;
61254;SDS011;47128;47.530;8.584;2024-03-08T06:26:12;39.03;;;18.20;;
61254;SDS011;47128;47.530;8.584;2024-03-08T06:31:42;37.45;;;17.98;;
61254;SDS011;47128;47.530;8.584;2024-03-08T06:34:08;37.33;;;16.52;;
61254;SDS011;47128;47.530;8.584;2024-03-08T06:36:34;37.15;;;17.02;;
61254;SDS011;47128;47.530;8.584;2024-03-08T06:39:03;41.58;;;18.88;;
61254;SDS011;47128;47.530;8.584;2024-03-08T06:41:35;37.85;;;18.55;;
61254;SDS011;47128;47.530;8.584;2024-03-08T06:44:01;38.22;;;18.15;;
61254;SDS011;47128;47.530;8.584;2024-03-08T06:46:27;42.42;;;18.45;;
61254;SDS011;47128;47.530;8.584;2024-03-08T06:49:05;36.20;;;17.38;;
61254;SDS011;47128;47.530;8.584;2024-03-08T06:54:31;37.30;;;17.67;;
61254;SDS011;47128;47.530;8.584;2024-03-08T06:56:57;35.95;;;16.17;;
61254;SDS011;47128;47.530;8.584;2024-03-08T06:59:24;35.53;;;16.55;;
61254;SDS011;47128;47.530;8.584;2024-03-08T07:01:50;36.53;;;17.13;;
61254;SDS011;47128;47.530;8.584;2024-03-08T07:04:19;41.25;;;18.33;;
61254;SDS011;47128;47.530;8.584;2024-03-08T07:06:50;33.65;;;16.90;;
61254;SDS011;47128;47.530;8.584;2024-03-08T07:09:16;35.75;;;16.60;;
61254;SDS011;47128;47.530;8.584;2024-03-08T07:14:29;37.60;;;17.05;;
61254;SDS011;47128;47.530;8.584;2024-03-08T07:16:59;35.95;;;17.45;;
61254;SDS011;47128;47.530;8.584;2024-03-08T07:22:28;35.90;;;16.38;;
61254;SDS011;47128;47.530;8.584;2024-03-08T07:24:54;35.20;;;16.45;;
61254;SDS011;47128;47.530;8.584;2024-03-08T07:27:53;31.50;;;15.68;;
61254;SDS011;47128;47.530;8.584;2024-03-08T07:30:23;31.85;;;15.77;;
61254;SDS011;47128;47.530;8.584;2024-03-08T07:33:08;34.25;;;16.05;;
61254;SDS011;47128;47.530;8.584;2024-03-08T07:35:38;34.38;;;16.48;;
61254;SDS011;47128;47.530;8.584;2024-03-08T07:38:05;33.45;;;15.90;;
61254;SDS011;47128;47.530;8.584;2024-03-08T07:43:35;32.22;;;15.98;;
61254;SDS011;47128;47.530;8.584;2024-03-08T07:48:53;32.67;;;14.88;;
61254;SDS011;47128;47.530;8.584;2024-03-08T07:51:19;34.92;;;16.73;;
61254;SDS011;47128;47.530;8.584;2024-03-08T07:53:45;34.13;;;15.57;;
61254;SDS011;47128;47.530;8.584;2024-03-08T07:56:12;33.50;;;15.63;;
61254;SDS011;47128;47.530;8.584;2024-03-08T07:58:39;34.35;;;15.77;;
61254;SDS011;47128;47.530;8.584;2024-03-08T08:01:08;33.47;;;15.10;;
61254;SDS011;47128;47.530;8.584;2024-03-08T08:03:34;33.83;;;15.15;;
61254;SDS011;47128;47.530;8.584;2024-03-08T08:06:03;32.80;;;16.15;;
61254;SDS011;47128;47.530;8.584;2024-03-08T08:08:29;29.10;;;13.60;;
61254;SDS011;47128;47.530;8.584;2024-03-08T08:10:57;35.70;;;14.98;;
61254;SDS011;47128;47.530;8.584;2024-03-08T08:13:23;33.10;;;15.73;;
61254;SDS011;47128;47.530;8.584;2024-03-08T08:15:50;32.05;;;14.73;;
61254;SDS011;47128;47.530;8.584;2024-03-08T08:18:16;28.20;;;14.27;;
61254;SDS011;47128;47.530;8.584;2024-03-08T08:20:44;30.27;;;13.55;;
61254;SDS011;47128;47.530;8.584;2024-03-08T08:23:11;32.10;;;13.65;;
61254;SDS011;47128;47.530;8.584;2024-03-08T08:25:37;29.77;;;14.65;;
61254;SDS011;47128;47.530;8.584;2024-03-08T08:28:03;32.70;;;15.70;;
61254;SDS011;47128;47.530;8.584;2024-03-08T08:33:33;27.85;;;14.10;;
61254;SDS011;47128;47.530;8.584;2024-03-08T08:36:00;33.05;;;15.75;;
61254;SDS011;47128;47.530;8.584;2024-03-08T08:38:26;28.52;;;13.55;;
61254;SDS011;47128;47.530;8.584;2024-03-08T08:40:52;33.60;;;14.63;;
61254;SDS011;47128;47.530;8.584;2024-03-08T08:43:19;29.95;;;16.05;;
61254;SDS011;47128;47.530;8.584;2024-03-08T08:45:49;31.17;;;15.88;;
61254;SDS011;47128;47.530;8.584;2024-03-08T08:48:18;31.52;;;14.55;;
61254;SDS011;47128;47.530;8.584;2024-03-08T08:50:44;34.00;;;15.90;;
61254;SDS011;47128;47.530;8.584;2024-03-08T08:53:11;30.67;;;15.15;;
61254;SDS011;47128;47.530;8.584;2024-03-08T08:55:42;28.60;;;14.52;;
61254;SDS011;47128;47.530;8.584;2024-03-08T08:58:10;34.03;;;16.23;;
61254;SDS011;47128;47.530;8.584;2024-03-08T09:00:50;31.63;;;15.55;;
61254;SDS011;47128;47.530;8.584;2024-03-08T09:06:15;29.00;;;14.10;;
61254;SDS011;47128;47.530;8.584;2024-03-08T09:08:42;34.00;;;15.23;;
61254;SDS011;47128;47.530;8.584;2024-03-08T09:11:11;33.72;;;16.20;;
61254;SDS011;47128;47.530;8.584;2024-03-08T09:13:38;28.50;;;13.70;;
61254;SDS011;47128;47.530;8.584;2024-03-08T09:16:04;34.05;;;14.73;;
61254;SDS011;47128;47.530;8.584;2024-03-08T09:18:31;36.13;;;16.30;;
61254;SDS011;47128;47.530;8.584;2024-03-08T09:20:59;30.20;;;14.73;;
61254;SDS011;47128;47.530;8.584;2024-03-08T09:23:25;34.83;;;15.45;;
61254;SDS011;47128;47.530;8.584;2024-03-08T09:25:58;34.53;;;15.32;;
61254;SDS011;47128;47.530;8.584;2024-03-08T09:28:24;31.70;;;15.10;;
61254;SDS011;47128;47.530;8.584;2024-03-08T09:30:52;34.08;;;15.85;;
61254;SDS011;47128;47.530;8.584;2024-03-08T09:33:19;31.45;;;14.98;;
61254;SDS011;47128;47.530;8.584;2024-03-08T09:35:47;30.67;;;14.30;;
61254;SDS011;47128;47.530;8.584;2024-03-08T09:38:13;32.28;;;14.52;;
61254;SDS011;47128;47.530;8.584;2024-03-08T09:40:43;29.00;;;14.80;;
61254;SDS011;47128;47.530;8.584;2024-03-08T09:43:09;28.35;;;13.20;;
61254;SDS011;47128;47.530;8.584;2024-03-08T09:45:37;31.05;;;14.20;;
61254;SDS011;47128;47.530;8.584;2024-03-08T09:48:10;28.65;;;14.18;;
61254;SDS011;47128;47.530;8.584;2024-03-08T09:50:40;32.95;;;15.52;;
61254;SDS011;47128;47.530;8.584;2024-03-08T09:53:06;28.52;;;13.60;;
61254;SDS011;47128;47.530;8.584;2024-03-08T09:55:34;32.80;;;15.73;;
61254;SDS011;47128;47.530;8.584;2024-03-08T09:58:02;31.88;;;15.25;;
61254;SDS011;47128;47.530;8.584;2024-03-08T10:00:47;30.88;;;14.90;;
61254;SDS011;47128;47.530;8.584;2024-03-08T10:03:13;29.23;;;15.05;;
61254;SDS011;47128;47.530;8.584;2024-03-08T10:05:56;30.42;;;13.93;;
61254;SDS011;47128;47.530;8.584;2024-03-08T10:08:26;30.42;;;14.70;;
61254;SDS011;47128;47.530;8.584;2024-03-08T10:10:55;32.22;;;14.10;;
61254;SDS011;47128;47.530;8.584;2024-03-08T10:13:24;27.55;;;14.27;;
61254;SDS011;47128;47.530;8.584;2024-03-08T10:16:00;34.33;;;14.68;;
61254;SDS011;47128;47.530;8.584;2024-03-08T10:18:27;27.02;;;13.85;;
61254;SDS011;47128;47.530;8.584;2024-03-08T16:36:12;22.33;;;11.90;;
61254;SDS011;47128;47.530;8.584;2024-03-08T16:38:39;21.98;;;11.95;;
61254;SDS011;47128;47.530;8.584;2024-03-08T16:41:23;22.27;;;12.48;;
61254;SDS011;47128;47.530;8.584;2024-03-08T16:43:50;22.23;;;12.05;;
61254;SDS011;47128;47.530;8.584;2024-03-08T16:46:16;23.23;;;11.43;;
61254;SDS011;47128;47.530;8.584;2024-03-08T16:48:54;23.17;;;12.25;;
61254;SDS011;47128;47.530;8.584;2024-03-08T16:51:20;23.33;;;12.20;;
61254;SDS011;47128;47.530;8.584;2024-03-08T16:53:49;24.45;;;12.05;;
61254;SDS011;47128;47.530;8.584;2024-03-08T16:56:15;23.70;;;12.48;;
61254;SDS011;47128;47.530;8.584;2024-03-08T16:58:43;20.05;;;10.73;;
61254;SDS011;47128;47.530;8.584;2024-03-08T17:04:00;21.77;;;11.60;;
61254;SDS011;47128;47.530;8.584;2024-03-08T17:15:38;20.38;;;10.60;;
61254;SDS011;47128;47.530;8.584;2024-03-08T17:18:04;22.70;;;11.38;;
61254;SDS011;47128;47.530;8.584;2024-03-08T17:20:31;23.80;;;11.43;;
61254;SDS011;47128;47.530;8.584;2024-03-08T17:22:58;24.33;;;11.32;;
61254;SDS011;47128;47.530;8.584;2024-03-08T17:25:25;22.05;;;12.38;;
61254;SDS011;47128;47.530;8.584;2024-03-08T17:27:52;24.85;;;12.63;;
61254;SDS011;47128;47.530;8.584;2024-03-08T17:30:26;23.75;;;11.90;;
61254;SDS011;47128;47.530;8.584;2024-03-08T17:32:53;23.80;;;11.73;;
61254;SDS011;47128;47.530;8.584;2024-03-08T17:35:20;22.58;;;11.55;;
61254;SDS011;47128;47.530;8.584;2024-03-08T17:43:38;26.55;;;12.73;;
61254;SDS011;47128;47.530;8.584;2024-03-08T17:49:09;24.75;;;13.55;;
61254;SDS011;47128;47.530;8.584;2024-03-08T17:51:38;22.65;;;12.30;;
61254;SDS011;47128;47.530;8.584;2024-03-08T17:54:05;24.52;;;13.02;;
61254;SDS011;47128;47.530;8.584;2024-03-08T17:56:32;23.60;;;11.98;;
61254;SDS011;47128;47.530;8.584;2024-03-08T17:58:59;23.33;;;10.93;;
61254;SDS011;47128;47.530;8.584;2024-03-08T18:01:27;25.83;;;11.95;;
61254;SDS011;47128;47.530;8.584;2024-03-08T18:03:53;27.60;;;12.65;;
61254;SDS011;47128;47.530;8.584;2024-03-08T18:06:23;24.83;;;12.48;;
61254;SDS011;47128;47.530;8.584;2024-03-08T18:08:51;27.50;;;13.48;;
61254;SDS011;47128;47.530;8.584;2024-03-08T18:11:19;23.27;;;12.05;;
61254;SDS011;47128;47.530;8.584;2024-03-08T18:13:48;25.08;;;13.10;;
61254;SDS011;47128;47.530;8.584;2024-03-08T18:16:16;23.33;;;12.90;;
61254;SDS011;47128;47.530;8.584;2024-03-08T18:18:54;25.23;;;12.68;;
61254;SDS011;47128;47.530;8.584;2024-03-08T18:21:20;22.13;;;11.95;;
61254;SDS011;47128;47.530;8.584;2024-03-08T18:23:48;23.77;;;12.77;;
61254;SDS011;47128;47.530;8.584;2024-03-08T18:26:14;23.80;;;12.32;;
61254;SDS011;47128;47.530;8.584;2024-03-08T18:28:45;21.88;;;11.43;;
61254;SDS011;47128;47.530;8.584;2024-03-08T18:31:13;24.92;;;12.93;;
61254;SDS011;47128;47.530;8.584;2024-03-08T18:33:40;24.20;;;12.60;;
61254;SDS011;47128;47.530;8.584;2024-03-08T18:36:10;22.70;;;10.93;;
61254;SDS011;47128;47.530;8.584;2024-03-08T18:38:37;20.83;;;11.50;;
61254;SDS011;47128;47.530;8.584;2024-03-08T18:41:03;21.45;;;12.57;;
61254;SDS011;47128;47.530;8.584;2024-03-08T18:43:29;23.27;;;12.43;;
61254;SDS011;47128;47.530;8.584;2024-03-08T18:45:55;24.30;;;12.30;;
61254;SDS011;47128;47.530;8.584;2024-03-08T18:50:52;21.98;;;12.25;;
61254;SDS011;47128;47.530;8.584;2024-03-08T18:53:19;23.45;;;12.40;;
61254;SDS011;47128;47.530;8.584;2024-03-08T18:55:45;26.95;;;12.75;;
61254;SDS011;47128;47.530;8.584;2024-03-08T18:58:18;23.25;;;11.30;;
61254;SDS011;47128;47.530;8.584;2024-03-08T19:00:44;24.98;;;12.68;;
61254;SDS011;47128;47.530;8.584;2024-03-08T19:03:14;24.80;;;12.90;;
61254;SDS011;47128;47.530;8.584;2024-03-08T19:08:18;26.75;;;13.07;;
61254;SDS011;47128;47.530;8.584;2024-03-08T19:10:44;23.00;;;12.13;;
61254;SDS011;47128;47.530;8.584;2024-03-08T19:13:10;24.90;;;12.85;;
61254;SDS011;47128;47.530;8.584;2024-03-08T19:15:45;23.80;;;11.95;;
61254;SDS011;47128;47.530;8.584;2024-03-08T19:18:12;23.73;;;12.10;;
61254;SDS011;47128;47.530;8.584;2024-03-08T19:20:38;23.60;;;12.30;;
61254;SDS011;47128;47.530;8.584;2024-03-08T19:23:05;23.52;;;13.32;;
61254;SDS011;47128;47.530;8.584;2024-03-08T19:25:31;23.98;;;12.75;;
61254;SDS011;47128;47.530;8.584;2024-03-08T19:27:58;28.60;;;12.70;;
61254;SDS011;47128;47.530;8.584;2024-03-08T19:30:25;25.23;;;12.93;;
61254;SDS011;47128;47.530;8.584;2024-03-08T19:32:56;23.75;;;11.30;;
61254;SDS011;47128;47.530;8.584;2024-03-08T19:35:23;22.23;;;11.90;;
61254;SDS011;47128;47.530;8.584;2024-03-08T19:37:50;24.83;;;12.32;;
61254;SDS011;47128;47.530;8.584;2024-03-08T19:40:20;22.35;;;11.50;;
61254;SDS011;47128;47.530;8.584;2024-03-08T19:42:52;23.25;;;11.82;;
61254;SDS011;47128;47.530;8.584;2024-03-08T19:45:19;26.88;;;12.10;;
61254;SDS011;47128;47.530;8.584;2024-03-08T19:47:45;26.63;;;12.75;;
61254;SDS011;47128;47.530;8.584;2024-03-08T19:50:12;24.50;;;11.73;;
61254;SDS011;47128;47.530;8.584;2024-03-08T19:55:09;25.45;;;12.20;;
61254;SDS011;47128;47.530;8.584;2024-03-08T19:57:35;23.73;;;12.57;;
61254;SDS011;47128;47.530;8.584;2024-03-08T20:00:02;23.88;;;12.25;;
61254;SDS011;47128;47.530;8.584;2024-03-08T20:02:29;24.48;;;13.13;;
61254;SDS011;47128;47.530;8.584;2024-03-08T20:04:55;25.48;;;13.27;;
61254;SDS011;47128;47.530;8.584;2024-03-08T20:07:22;24.08;;;12.63;;
61254;SDS011;47128;47.530;8.584;2024-03-08T20:09:48;23.55;;;12.43;;
61254;SDS011;47128;47.530;8.584;2024-03-08T20:12:15;23.60;;;12.40;;
61254;SDS011;47128;47.530;8.584;2024-03-08T20:14:41;27.80;;;13.25;;
61254;SDS011;47128;47.530;8.584;2024-03-08T20:17:08;24.90;;;11.80;;
61254;SDS011;47128;47.530;8.584;2024-03-08T20:19:34;25.15;;;12.10;;
61254;SDS011;47128;47.530;8.584;2024-03-08T20:22:02;26.13;;;12.93;;
61254;SDS011;47128;47.530;8.584;2024-03-08T20:24:28;26.92;;;13.13;;
61254;SDS011;47128;47.530;8.584;2024-03-08T20:26:54;24.70;;;13.15;;
61254;SDS011;47128;47.530;8.584;2024-03-08T20:29:23;25.77;;;13.30;;
61254;SDS011;47128;47.530;8.584;2024-03-08T20:34:53;27.67;;;13.98;;
61254;SDS011;47128;47.530;8.584;2024-03-08T20:37:19;26.88;;;14.68;;
61254;SDS011;47128;47.530;8.584;2024-03-08T20:39:47;24.58;;;13.18;;
61254;SDS011;47128;47.530;8.584;2024-03-08T20:42:14;29.67;;;14.82;;
61254;SDS011;47128;47.530;8.584;2024-03-08T20:44:40;28.55;;;15.15;;
61254;SDS011;47128;47.530;8.584;2024-03-08T20:47:06;25.77;;;14.27;;
61254;SDS011;47128;47.530;8.584;2024-03-08T20:49:32;26.27;;;13.05;;
61254;SDS011;47128;47.530;8.584;2024-03-08T20:51:58;26.02;;;12.93;;
61254;SDS011;47128;47.530;8.584;2024-03-08T20:54:24;24.55;;;12.48;;
61254;SDS011;47128;47.530;8.584;2024-03-08T20:56:50;25.42;;;13.50;;
61254;SDS011;47128;47.530;8.584;2024-03-08T20:59:17;27.65;;;14.65;;
61254;SDS011;47128;47.530;8.584;2024-03-08T21:01:44;28.13;;;14.85;;
61254;SDS011;47128;47.530;8.584;2024-03-08T21:04:10;27.88;;;14.82;;
61254;SDS011;47128;47.530;8.584;2024-03-08T21:06:37;28.45;;;13.48;;
61254;SDS011;47128;47.530;8.584;2024-03-08T21:09:05;28.30;;;13.32;;
61254;SDS011;47128;47.530;8.584;2024-03-08T21:11:36;26.85;;;14.52;;
61254;SDS011;47128;47.530;8.584;2024-03-08T21:14:02;29.10;;;14.05;;
61254;SDS011;47128;47.530;8.584;2024-03-08T21:16:30;25.75;;;14.10;;
61254;SDS011;47128;47.530;8.584;2024-03-08T21:18:56;28.42;;;14.05;;
61254;SDS011;47128;47.530;8.584;2024-03-08T21:21:23;26.63;;;14.07;;
61254;SDS011;47128;47.530;8.584;2024-03-08T21:23:53;28.05;;;14.70;;
61254;SDS011;47128;47.530;8.584;2024-03-08T21:26:19;27.17;;;14.15;;
61254;SDS011;47128;47.530;8.584;2024-03-08T21:28:46;23.30;;;11.70;;
61254;SDS011;47128;47.530;8.584;2024-03-08T21:31:12;31.77;;;15.43;;
61254;SDS011;47128;47.530;8.584;2024-03-08T21:33:39;27.15;;;14.80;;
61254;SDS011;47128;47.530;8.584;2024-03-08T21:36:05;28.85;;;14.82;;
61254;SDS011;47128;47.530;8.584;2024-03-08T21:38:33;26.02;;;13.85;;